sensor_id;sensor_type;location;lat;lon;timestamp;temperature;humidity
35541;DHT22;21650;48.840;9.162;2023-12-20T00:01:19;5.40;99.90
35541;DHT22;21650;48.840;9.162;2023-12-20T00:03:45;5.30;99.90
35541;DHT22;21650;48.840;9.162;2023-12-20T00:06:11;5.30;99.90
35541;DHT22;21650;48.840;9.162;2023-12-20T00:08:37;5.40;99.90
35541;DHT22;21650;48.840;9.162;2023-12-20T00:11:02;5.30;99.90
35541;DHT22;21650;48.840;9.162;2023-12-20T00:13:28;5.40;99.90
35541;DHT22;21650;48.840;9.162;2023-12-20T00:15:53;5.40;99.90
35541;DHT22;21650;48.840;9.162;2023-12-20T00:18:19;5.40;99.90
35541;DHT22;21650;48.840;9.162;2023-12-20T00:20:44;5.60;99.90
35541;DHT22;21650;48.840;9.162;2023-12-20T00:23:10;5.60;99.90
35541;DHT22;21650;48.840;9.162;2023-12-20T00:25:35;5.50;99.90
35541;DHT22;21650;48.840;9.162;2023-12-20T00:28:01;5.50;99.90
35541;DHT22;21650;48.840;9.162;2023-12-20T00:30:27;5.40;99.90
35541;DHT22;21650;48.840;9.162;2023-12-20T00:32:53;5.40;99.90
35541;DHT22;21650;48.840;9.162;2023-12-20T00:35:19;5.40;99.90
35541;DHT22;21650;48.840;9.162;2023-12-20T00:37:44;5.40;99.90
35541;DHT22;21650;48.840;9.162;2023-12-20T00:40:10;5.30;99.90
35541;DHT22;21650;48.840;9.162;2023-12-20T00:42:36;5.20;99.90
35541;DHT22;21650;48.840;9.162;2023-12-20T00:45:02;5.30;99.90
35541;DHT22;21650;48.840;9.162;2023-12-20T00:47:30;5.20;99.90
35541;DHT22;21650;48.840;9.162;2023-12-20T00:49:56;5.20;99.90
35541;DHT22;21650;48.840;9.162;2023-12-20T00:52:21;5.30;99.90
35541;DHT22;21650;48.840;9.162;2023-12-20T00:54:48;5.30;99.90
35541;DHT22;21650;48.840;9.162;2023-12-20T00:57:14;5.20;99.90
35541;DHT22;21650;48.840;9.162;2023-12-20T00:59:39;5.20;99.90
35541;DHT22;21650;48.840;9.162;2023-12-20T01:02:05;5.30;99.90
35541;DHT22;21650;48.840;9.162;2023-12-20T01:04:31;5.30;99.90
35541;DHT22;21650;48.840;9.162;2023-12-20T01:06:56;5.30;99.90
35541;DHT22;21650;48.840;9.162;2023-12-20T01:09:22;5.40;99.90
35541;DHT22;21650;48.840;9.162;2023-12-20T01:11:54;5.30;99.90
35541;DHT22;21650;48.840;9.162;2023-12-20T01:14:20;5.20;99.90
35541;DHT22;21650;48.840;9.162;2023-12-20T01:16:45;5.30;99.90
35541;DHT22;21650;48.840;9.162;2023-12-20T01:19:12;5.30;99.90
35541;DHT22;21650;48.840;9.162;2023-12-20T01:21:39;5.30;99.90
35541;DHT22;21650;48.840;9.162;2023-12-20T01:24:04;5.30;99.90
35541;DHT22;21650;48.840;9.162;2023-12-20T01:26:30;5.30;99.90
35541;DHT22;21650;48.840;9.162;2023-12-20T01:28:55;5.30;99.90
35541;DHT22;21650;48.840;9.162;2023-12-20T01:31:21;5.30;99.90
35541;DHT22;21650;48.840;9.162;2023-12-20T01:33:46;5.30;99.90
35541;DHT22;21650;48.840;9.162;2023-12-20T01:36:12;5.30;99.90
35541;DHT22;21650;48.840;9.162;2023-12-20T01:38:38;5.20;99.90
35541;DHT22;21650;48.840;9.162;2023-12-20T01:41:03;5.30;99.90
35541;DHT22;21650;48.840;9.162;2023-12-20T01:43:30;5.20;99.90
35541;DHT22;21650;48.840;9.162;2023-12-20T01:45:57;5.20;99.90
35541;DHT22;21650;48.840;9.162;2023-12-20T01:48:25;5.20;99.90
35541;DHT22;21650;48.840;9.162;2023-12-20T01:50:51;5.20;99.90
35541;DHT22;21650;48.840;9.162;2023-12-20T01:53:19;5.20;99.90
35541;DHT22;21650;48.840;9.162;2023-12-20T01:55:46;5.10;99.90
35541;DHT22;21650;48.840;9.162;2023-12-20T01:58:14;5.10;99.90
35541;DHT22;21650;48.840;9.162;2023-12-20T02:00:40;5.10;99.90
35541;DHT22;21650;48.840;9.162;2023-12-20T02:03:06;5.10;99.90
35541;DHT22;21650;48.840;9.162;2023-12-20T02:05:33;5.10;99.90
35541;DHT22;21650;48.840;9.162;2023-12-20T02:08:00;5.20;99.90
35541;DHT22;21650;48.840;9.162;2023-12-20T02:10:26;5.30;99.90
35541;DHT22;21650;48.840;9.162;2023-12-20T02:12:52;5.20;99.90
35541;DHT22;21650;48.840;9.162;2023-12-20T02:15:18;5.20;99.90
35541;DHT22;21650;48.840;9.162;2023-12-20T02:17:44;5.20;99.90
35541;DHT22;21650;48.840;9.162;2023-12-20T02:20:10;5.10;99.90
35541;DHT22;21650;48.840;9.162;2023-12-20T02:22:36;5.10;99.90
35541;DHT22;21650;48.840;9.162;2023-12-20T02:25:02;5.10;99.90
35541;DHT22;21650;48.840;9.162;2023-12-20T02:27:28;5.10;99.90
35541;DHT22;21650;48.840;9.162;2023-12-20T02:29:54;5.10;99.90
35541;DHT22;21650;48.840;9.162;2023-12-20T02:32:20;5.10;99.90
35541;DHT22;21650;48.840;9.162;2023-12-20T02:34:47;5.10;99.90
35541;DHT22;21650;48.840;9.162;2023-12-20T02:37:13;5.20;99.90
35541;DHT22;21650;48.840;9.162;2023-12-20T02:39:39;5.20;99.90
35541;DHT22;21650;48.840;9.162;2023-12-20T02:42:04;5.30;99.90
35541;DHT22;21650;48.840;9.162;2023-12-20T02:44:30;5.40;99.90
35541;DHT22;21650;48.840;9.162;2023-12-20T02:46:55;5.50;99.90
35541;DHT22;21650;48.840;9.162;2023-12-20T02:49:21;5.50;99.90
35541;DHT22;21650;48.840;9.162;2023-12-20T02:51:47;5.50;99.90
35541;DHT22;21650;48.840;9.162;2023-12-20T02:54:12;5.60;99.90
35541;DHT22;21650;48.840;9.162;2023-12-20T02:56:38;5.70;99.90
35541;DHT22;21650;48.840;9.162;2023-12-20T02:59:04;5.70;99.90
35541;DHT22;21650;48.840;9.162;2023-12-20T03:01:31;5.60;99.90
35541;DHT22;21650;48.840;9.162;2023-12-20T03:03:57;5.70;99.90
35541;DHT22;21650;48.840;9.162;2023-12-20T03:06:23;5.80;99.90
35541;DHT22;21650;48.840;9.162;2023-12-20T03:08:49;5.70;99.90
35541;DHT22;21650;48.840;9.162;2023-12-20T03:11:14;5.70;99.90
35541;DHT22;21650;48.840;9.162;2023-12-20T03:13:40;5.80;99.90
35541;DHT22;21650;48.840;9.162;2023-12-20T03:16:13;5.70;99.90
35541;DHT22;21650;48.840;9.162;2023-12-20T03:18:39;5.70;99.90
35541;DHT22;21650;48.840;9.162;2023-12-20T03:21:05;5.80;99.90
35541;DHT22;21650;48.840;9.162;2023-12-20T03:23:31;5.80;99.90
35541;DHT22;21650;48.840;9.162;2023-12-20T03:25:58;5.70;99.90
35541;DHT22;21650;48.840;9.162;2023-12-20T03:28:24;5.70;99.90
35541;DHT22;21650;48.840;9.162;2023-12-20T03:30:49;5.60;99.90
35541;DHT22;21650;48.840;9.162;2023-12-20T03:33:15;5.60;99.90
35541;DHT22;21650;48.840;9.162;2023-12-20T03:35:41;5.60;99.90
35541;DHT22;21650;48.840;9.162;2023-12-20T03:38:07;5.60;99.90
35541;DHT22;21650;48.840;9.162;2023-12-20T03:40:32;5.60;99.90
35541;DHT22;21650;48.840;9.162;2023-12-20T03:42:58;5.60;99.90
35541;DHT22;21650;48.840;9.162;2023-12-20T03:45:24;5.50;99.90
35541;DHT22;21650;48.840;9.162;2023-12-20T03:47:50;5.50;99.90
35541;DHT22;21650;48.840;9.162;2023-12-20T03:50:21;5.50;99.90
35541;DHT22;21650;48.840;9.162;2023-12-20T03:52:47;5.50;99.90
35541;DHT22;21650;48.840;9.162;2023-12-20T03:55:12;5.50;99.90
35541;DHT22;21650;48.840;9.162;2023-12-20T03:57:38;5.40;99.90
35541;DHT22;21650;48.840;9.162;2023-12-20T04:00:04;5.40;99.90
35541;DHT22;21650;48.840;9.162;2023-12-20T04:02:31;5.40;99.90
35541;DHT22;21650;48.840;9.162;2023-12-20T04:04:56;5.40;99.90
35541;DHT22;21650;48.840;9.162;2023-12-20T04:07:22;5.40;99.90
35541;DHT22;21650;48.840;9.162;2023-12-20T04:09:47;5.40;99.90
35541;DHT22;21650;48.840;9.162;2023-12-20T04:12:13;5.50;99.90
35541;DHT22;21650;48.840;9.162;2023-12-20T04:14:39;5.40;99.90
35541;DHT22;21650;48.840;9.162;2023-12-20T04:17:04;5.30;99.90
35541;DHT22;21650;48.840;9.162;2023-12-20T04:19:30;5.30;99.90
35541;DHT22;21650;48.840;9.162;2023-12-20T04:21:56;5.30;99.90
35541;DHT22;21650;48.840;9.162;2023-12-20T04:24:21;5.30;99.90
35541;DHT22;21650;48.840;9.162;2023-12-20T04:26:48;5.30;99.90
35541;DHT22;21650;48.840;9.162;2023-12-20T04:29:13;5.40;99.90
35541;DHT22;21650;48.840;9.162;2023-12-20T04:31:39;5.30;99.90
35541;DHT22;21650;48.840;9.162;2023-12-20T04:34:04;5.30;99.90
35541;DHT22;21650;48.840;9.162;2023-12-20T04:36:30;5.30;99.90
35541;DHT22;21650;48.840;9.162;2023-12-20T04:38:56;5.30;99.90
35541;DHT22;21650;48.840;9.162;2023-12-20T04:41:21;5.40;99.90
35541;DHT22;21650;48.840;9.162;2023-12-20T04:43:47;5.30;99.90
35541;DHT22;21650;48.840;9.162;2023-12-20T04:46:12;5.30;99.90
35541;DHT22;21650;48.840;9.162;2023-12-20T04:48:38;5.40;99.90
35541;DHT22;21650;48.840;9.162;2023-12-20T04:51:04;5.40;99.90
35541;DHT22;21650;48.840;9.162;2023-12-20T04:53:30;5.40;99.90
35541;DHT22;21650;48.840;9.162;2023-12-20T04:55:55;5.40;99.90
35541;DHT22;21650;48.840;9.162;2023-12-20T04:58:21;5.40;99.90
35541;DHT22;21650;48.840;9.162;2023-12-20T05:00:46;5.40;99.90
35541;DHT22;21650;48.840;9.162;2023-12-20T05:03:12;5.40;99.90
35541;DHT22;21650;48.840;9.162;2023-12-20T05:05:38;5.40;99.90
35541;DHT22;21650;48.840;9.162;2023-12-20T05:08:04;5.40;99.90
35541;DHT22;21650;48.840;9.162;2023-12-20T05:10:30;5.30;99.90
35541;DHT22;21650;48.840;9.162;2023-12-20T05:12:55;5.40;99.90
35541;DHT22;21650;48.840;9.162;2023-12-20T05:15:21;5.30;99.90
35541;DHT22;21650;48.840;9.162;2023-12-20T05:17:47;5.40;99.90
35541;DHT22;21650;48.840;9.162;2023-12-20T05:20:12;5.40;99.90
35541;DHT22;21650;48.840;9.162;2023-12-20T05:22:38;5.40;99.90
35541;DHT22;21650;48.840;9.162;2023-12-20T05:25:04;5.40;99.90
35541;DHT22;21650;48.840;9.162;2023-12-20T05:27:30;5.40;99.90
35541;DHT22;21650;48.840;9.162;2023-12-20T05:29:55;5.40;99.90
35541;DHT22;21650;48.840;9.162;2023-12-20T05:32:23;5.40;99.90
35541;DHT22;21650;48.840;9.162;2023-12-20T05:34:49;5.40;99.90
35541;DHT22;21650;48.840;9.162;2023-12-20T05:37:14;5.40;99.90
35541;DHT22;21650;48.840;9.162;2023-12-20T05:39:40;5.40;99.90
35541;DHT22;21650;48.840;9.162;2023-12-20T05:42:05;5.30;99.90
35541;DHT22;21650;48.840;9.162;2023-12-20T05:44:31;5.40;99.90
35541;DHT22;21650;48.840;9.162;2023-12-20T05:46:57;5.30;99.90
35541;DHT22;21650;48.840;9.162;2023-12-20T05:49:22;5.30;99.90
35541;DHT22;21650;48.840;9.162;2023-12-20T05:51:48;5.30;99.90
35541;DHT22;21650;48.840;9.162;2023-12-20T05:54:14;5.30;99.90
35541;DHT22;21650;48.840;9.162;2023-12-20T05:56:39;5.40;99.90
35541;DHT22;21650;48.840;9.162;2023-12-20T05:59:05;5.30;99.90
35541;DHT22;21650;48.840;9.162;2023-12-20T06:01:31;5.30;99.90
35541;DHT22;21650;48.840;9.162;2023-12-20T06:03:56;5.30;99.90
35541;DHT22;21650;48.840;9.162;2023-12-20T06:06:23;5.40;99.90
35541;DHT22;21650;48.840;9.162;2023-12-20T06:08:49;5.40;99.90
35541;DHT22;21650;48.840;9.162;2023-12-20T06:11:14;5.40;99.90
35541;DHT22;21650;48.840;9.162;2023-12-20T06:13:40;5.40;99.90
35541;DHT22;21650;48.840;9.162;2023-12-20T06:16:06;5.40;99.90
35541;DHT22;21650;48.840;9.162;2023-12-20T06:18:35;5.40;99.90
35541;DHT22;21650;48.840;9.162;2023-12-20T06:21:02;5.40;99.90
35541;DHT22;21650;48.840;9.162;2023-12-20T06:23:28;5.30;99.90
35541;DHT22;21650;48.840;9.162;2023-12-20T06:25:53;5.30;99.90
35541;DHT22;21650;48.840;9.162;2023-12-20T06:28:19;5.40;99.90
35541;DHT22;21650;48.840;9.162;2023-12-20T06:30:44;5.40;99.90
35541;DHT22;21650;48.840;9.162;2023-12-20T06:33:12;5.40;99.90
35541;DHT22;21650;48.840;9.162;2023-12-20T06:35:38;5.40;99.90
35541;DHT22;21650;48.840;9.162;2023-12-20T06:38:04;5.40;99.90
35541;DHT22;21650;48.840;9.162;2023-12-20T06:40:30;5.40;99.90
35541;DHT22;21650;48.840;9.162;2023-12-20T06:42:55;5.40;99.90
35541;DHT22;21650;48.840;9.162;2023-12-20T06:45:21;5.40;99.90
35541;DHT22;21650;48.840;9.162;2023-12-20T06:47:46;5.40;99.90
35541;DHT22;21650;48.840;9.162;2023-12-20T06:50:12;5.50;99.90
35541;DHT22;21650;48.840;9.162;2023-12-20T06:52:37;5.50;99.90
35541;DHT22;21650;48.840;9.162;2023-12-20T06:55:03;5.50;99.90
35541;DHT22;21650;48.840;9.162;2023-12-20T06:57:29;5.60;99.90
35541;DHT22;21650;48.840;9.162;2023-12-20T06:59:56;5.60;99.90
35541;DHT22;21650;48.840;9.162;2023-12-20T07:02:21;5.60;99.90
35541;DHT22;21650;48.840;9.162;2023-12-20T07:04:47;5.70;99.90
35541;DHT22;21650;48.840;9.162;2023-12-20T07:07:13;5.70;99.90
35541;DHT22;21650;48.840;9.162;2023-12-20T07:09:39;5.60;99.90
35541;DHT22;21650;48.840;9.162;2023-12-20T07:12:06;5.70;99.90
35541;DHT22;21650;48.840;9.162;2023-12-20T07:14:32;5.70;99.90
35541;DHT22;21650;48.840;9.162;2023-12-20T07:16:57;5.70;99.90
35541;DHT22;21650;48.840;9.162;2023-12-20T07:19:23;5.70;99.90
35541;DHT22;21650;48.840;9.162;2023-12-20T07:21:48;5.80;99.90
35541;DHT22;21650;48.840;9.162;2023-12-20T07:24:14;5.70;99.90
35541;DHT22;21650;48.840;9.162;2023-12-20T07:26:39;5.70;99.90
35541;DHT22;21650;48.840;9.162;2023-12-20T07:29:05;5.80;99.90
35541;DHT22;21650;48.840;9.162;2023-12-20T07:31:32;5.80;99.90
35541;DHT22;21650;48.840;9.162;2023-12-20T07:33:57;5.70;99.90
35541;DHT22;21650;48.840;9.162;2023-12-20T07:36:23;5.70;99.90
35541;DHT22;21650;48.840;9.162;2023-12-20T07:38:49;5.70;99.90
35541;DHT22;21650;48.840;9.162;2023-12-20T07:41:14;5.60;99.90
35541;DHT22;21650;48.840;9.162;2023-12-20T07:43:41;5.70;99.90
35541;DHT22;21650;48.840;9.162;2023-12-20T07:46:08;5.60;99.90
35541;DHT22;21650;48.840;9.162;2023-12-20T07:48:37;5.60;99.90
35541;DHT22;21650;48.840;9.162;2023-12-20T07:51:03;5.60;99.90
35541;DHT22;21650;48.840;9.162;2023-12-20T07:53:29;5.60;99.90
35541;DHT22;21650;48.840;9.162;2023-12-20T07:55:55;5.50;99.90
35541;DHT22;21650;48.840;9.162;2023-12-20T07:58:21;5.50;99.90
35541;DHT22;21650;48.840;9.162;2023-12-20T08:00:47;5.40;99.90
35541;DHT22;21650;48.840;9.162;2023-12-20T08:03:13;5.40;99.90
35541;DHT22;21650;48.840;9.162;2023-12-20T08:05:38;5.30;99.90
35541;DHT22;21650;48.840;9.162;2023-12-20T08:08:06;5.30;99.90
35541;DHT22;21650;48.840;9.162;2023-12-20T08:10:31;5.20;99.90
35541;DHT22;21650;48.840;9.162;2023-12-20T08:12:57;5.10;99.90
35541;DHT22;21650;48.840;9.162;2023-12-20T08:15:23;5.10;99.90
35541;DHT22;21650;48.840;9.162;2023-12-20T08:17:49;5.10;99.90
35541;DHT22;21650;48.840;9.162;2023-12-20T08:20:16;5.10;99.90
35541;DHT22;21650;48.840;9.162;2023-12-20T08:22:42;5.10;99.90
35541;DHT22;21650;48.840;9.162;2023-12-20T08:25:07;5.10;99.90
35541;DHT22;21650;48.840;9.162;2023-12-20T08:27:38;5.10;99.90
35541;DHT22;21650;48.840;9.162;2023-12-20T08:30:04;5.00;99.90
35541;DHT22;21650;48.840;9.162;2023-12-20T08:32:29;5.00;99.90
35541;DHT22;21650;48.840;9.162;2023-12-20T08:34:55;5.00;99.90
35541;DHT22;21650;48.840;9.162;2023-12-20T08:37:20;4.90;99.90
35541;DHT22;21650;48.840;9.162;2023-12-20T08:39:46;4.90;99.90
35541;DHT22;21650;48.840;9.162;2023-12-20T08:42:12;5.00;99.90
35541;DHT22;21650;48.840;9.162;2023-12-20T08:44:37;5.00;99.90
35541;DHT22;21650;48.840;9.162;2023-12-20T08:47:03;5.00;99.90
35541;DHT22;21650;48.840;9.162;2023-12-20T08:49:29;5.00;99.90
35541;DHT22;21650;48.840;9.162;2023-12-20T08:51:54;5.00;99.90
35541;DHT22;21650;48.840;9.162;2023-12-20T08:54:20;5.10;99.90
35541;DHT22;21650;48.840;9.162;2023-12-20T08:56:45;5.10;99.90
35541;DHT22;21650;48.840;9.162;2023-12-20T08:59:11;5.10;99.90
35541;DHT22;21650;48.840;9.162;2023-12-20T09:01:37;5.10;99.90
35541;DHT22;21650;48.840;9.162;2023-12-20T09:04:03;5.20;99.90
35541;DHT22;21650;48.840;9.162;2023-12-20T09:06:29;5.20;99.90
35541;DHT22;21650;48.840;9.162;2023-12-20T09:08:54;5.20;99.90
35541;DHT22;21650;48.840;9.162;2023-12-20T09:11:20;5.30;99.90
35541;DHT22;21650;48.840;9.162;2023-12-20T09:13:45;5.30;99.90
35541;DHT22;21650;48.840;9.162;2023-12-20T09:16:11;5.30;99.90
35541;DHT22;21650;48.840;9.162;2023-12-20T09:18:38;5.30;99.90
35541;DHT22;21650;48.840;9.162;2023-12-20T09:21:04;5.40;99.90
35541;DHT22;21650;48.840;9.162;2023-12-20T09:23:29;5.40;99.90
35541;DHT22;21650;48.840;9.162;2023-12-20T09:25:55;5.50;99.90
35541;DHT22;21650;48.840;9.162;2023-12-20T09:28:20;5.40;99.90
35541;DHT22;21650;48.840;9.162;2023-12-20T09:30:46;5.50;99.90
35541;DHT22;21650;48.840;9.162;2023-12-20T09:33:13;5.50;99.90
35541;DHT22;21650;48.840;9.162;2023-12-20T09:35:39;5.60;99.90
35541;DHT22;21650;48.840;9.162;2023-12-20T09:38:05;5.60;99.90
35541;DHT22;21650;48.840;9.162;2023-12-20T09:40:32;5.70;99.90
35541;DHT22;21650;48.840;9.162;2023-12-20T09:43:01;5.70;99.90
35541;DHT22;21650;48.840;9.162;2023-12-20T09:45:30;5.70;99.90
35541;DHT22;21650;48.840;9.162;2023-12-20T09:47:58;5.70;99.90
35541;DHT22;21650;48.840;9.162;2023-12-20T09:50:23;5.80;99.90
35541;DHT22;21650;48.840;9.162;2023-12-20T09:52:53;5.80;99.90
35541;DHT22;21650;48.840;9.162;2023-12-20T09:55:20;5.80;99.90
35541;DHT22;21650;48.840;9.162;2023-12-20T09:57:49;5.90;99.90
35541;DHT22;21650;48.840;9.162;2023-12-20T10:00:15;5.90;99.90
35541;DHT22;21650;48.840;9.162;2023-12-20T10:02:59;6.00;99.90
35541;DHT22;21650;48.840;9.162;2023-12-20T10:05:30;6.00;99.90
35541;DHT22;21650;48.840;9.162;2023-12-20T10:07:57;5.90;99.90
35541;DHT22;21650;48.840;9.162;2023-12-20T10:10:23;5.90;99.90
35541;DHT22;21650;48.840;9.162;2023-12-20T10:13:02;5.80;99.90
35541;DHT22;21650;48.840;9.162;2023-12-20T10:15:29;5.80;99.90
35541;DHT22;21650;48.840;9.162;2023-12-20T10:17:55;5.80;99.90
35541;DHT22;21650;48.840;9.162;2023-12-20T10:20:21;5.80;99.90
35541;DHT22;21650;48.840;9.162;2023-12-20T10:22:47;5.70;99.90
35541;DHT22;21650;48.840;9.162;2023-12-20T10:25:13;5.70;99.90
35541;DHT22;21650;48.840;9.162;2023-12-20T10:27:38;5.70;99.90
35541;DHT22;21650;48.840;9.162;2023-12-20T10:30:04;5.70;99.90
35541;DHT22;21650;48.840;9.162;2023-12-20T10:32:30;5.70;99.90
35541;DHT22;21650;48.840;9.162;2023-12-20T10:34:56;5.70;99.90
35541;DHT22;21650;48.840;9.162;2023-12-20T10:37:22;5.70;99.90
35541;DHT22;21650;48.840;9.162;2023-12-20T10:39:52;5.60;99.90
35541;DHT22;21650;48.840;9.162;2023-12-20T10:42:27;5.70;99.90
35541;DHT22;21650;48.840;9.162;2023-12-20T10:44:54;5.70;99.90
35541;DHT22;21650;48.840;9.162;2023-12-20T10:47:20;5.70;99.90
35541;DHT22;21650;48.840;9.162;2023-12-20T10:49:46;5.80;99.90
35541;DHT22;21650;48.840;9.162;2023-12-20T10:52:13;5.90;99.90
35541;DHT22;21650;48.840;9.162;2023-12-20T10:54:41;5.90;99.90
35541;DHT22;21650;48.840;9.162;2023-12-20T10:57:08;5.80;99.90
35541;DHT22;21650;48.840;9.162;2023-12-20T10:59:36;5.90;99.90
35541;DHT22;21650;48.840;9.162;2023-12-20T11:02:05;6.10;99.90
35541;DHT22;21650;48.840;9.162;2023-12-20T11:07:37;6.20;99.90
35541;DHT22;21650;48.840;9.162;2023-12-20T11:13:08;6.20;99.90
35541;DHT22;21650;48.840;9.162;2023-12-20T11:15:36;6.20;99.90
35541;DHT22;21650;48.840;9.162;2023-12-20T11:18:04;6.10;99.90
35541;DHT22;21650;48.840;9.162;2023-12-20T11:20:38;6.10;99.90
35541;DHT22;21650;48.840;9.162;2023-12-20T11:23:05;6.10;99.90
35541;DHT22;21650;48.840;9.162;2023-12-20T11:25:49;6.10;99.90
35541;DHT22;21650;48.840;9.162;2023-12-20T11:28:21;6.10;99.90
35541;DHT22;21650;48.840;9.162;2023-12-20T11:30:54;6.10;99.90
35541;DHT22;21650;48.840;9.162;2023-12-20T11:33:30;6.10;99.90
35541;DHT22;21650;48.840;9.162;2023-12-20T11:35:57;6.10;99.90
35541;DHT22;21650;48.840;9.162;2023-12-20T11:38:23;6.10;99.90
35541;DHT22;21650;48.840;9.162;2023-12-20T11:40:50;6.00;99.90
35541;DHT22;21650;48.840;9.162;2023-12-20T11:43:34;6.00;99.90
35541;DHT22;21650;48.840;9.162;2023-12-20T11:46:07;6.00;99.90
35541;DHT22;21650;48.840;9.162;2023-12-20T11:48:36;6.00;99.90
35541;DHT22;21650;48.840;9.162;2023-12-20T11:51:02;6.00;99.90
35541;DHT22;21650;48.840;9.162;2023-12-20T11:53:34;5.90;99.90
35541;DHT22;21650;48.840;9.162;2023-12-20T11:56:00;5.90;99.90
35541;DHT22;21650;48.840;9.162;2023-12-20T11:58:28;5.90;99.90
35541;DHT22;21650;48.840;9.162;2023-12-20T12:00:55;5.90;99.90
35541;DHT22;21650;48.840;9.162;2023-12-20T12:03:20;6.00;99.90
35541;DHT22;21650;48.840;9.162;2023-12-20T12:05:47;6.00;99.90
35541;DHT22;21650;48.840;9.162;2023-12-20T12:08:13;6.00;99.90
35541;DHT22;21650;48.840;9.162;2023-12-20T12:10:39;6.10;99.90
35541;DHT22;21650;48.840;9.162;2023-12-20T12:13:05;6.10;99.90
35541;DHT22;21650;48.840;9.162;2023-12-20T12:15:30;6.10;99.90
35541;DHT22;21650;48.840;9.162;2023-12-20T12:17:56;6.20;99.90
35541;DHT22;21650;48.840;9.162;2023-12-20T12:20:23;6.30;99.90
35541;DHT22;21650;48.840;9.162;2023-12-20T12:22:59;6.30;99.90
35541;DHT22;21650;48.840;9.162;2023-12-20T12:25:25;6.30;99.90
35541;DHT22;21650;48.840;9.162;2023-12-20T12:27:51;6.30;99.90
35541;DHT22;21650;48.840;9.162;2023-12-20T12:30:17;6.30;99.90
35541;DHT22;21650;48.840;9.162;2023-12-20T12:32:47;6.30;99.90
35541;DHT22;21650;48.840;9.162;2023-12-20T12:35:14;6.30;99.90
35541;DHT22;21650;48.840;9.162;2023-12-20T12:37:40;6.30;99.90
35541;DHT22;21650;48.840;9.162;2023-12-20T12:40:16;6.40;99.90
35541;DHT22;21650;48.840;9.162;2023-12-20T12:42:43;6.50;99.90
35541;DHT22;21650;48.840;9.162;2023-12-20T12:45:10;6.60;99.90
35541;DHT22;21650;48.840;9.162;2023-12-20T12:47:37;6.50;99.90
35541;DHT22;21650;48.840;9.162;2023-12-20T12:50:03;6.60;99.90
35541;DHT22;21650;48.840;9.162;2023-12-20T12:52:30;6.60;99.90
35541;DHT22;21650;48.840;9.162;2023-12-20T12:54:56;6.40;99.90
35541;DHT22;21650;48.840;9.162;2023-12-20T12:57:21;6.40;99.90
35541;DHT22;21650;48.840;9.162;2023-12-20T12:59:47;6.40;99.90
35541;DHT22;21650;48.840;9.162;2023-12-20T13:02:13;6.40;99.90
35541;DHT22;21650;48.840;9.162;2023-12-20T13:04:39;6.30;99.90
35541;DHT22;21650;48.840;9.162;2023-12-20T13:07:06;6.40;99.90
35541;DHT22;21650;48.840;9.162;2023-12-20T13:09:31;6.40;99.90
35541;DHT22;21650;48.840;9.162;2023-12-20T13:11:57;6.40;99.90
35541;DHT22;21650;48.840;9.162;2023-12-20T13:14:24;6.30;99.90
35541;DHT22;21650;48.840;9.162;2023-12-20T13:16:49;6.30;99.90
35541;DHT22;21650;48.840;9.162;2023-12-20T13:19:15;6.30;99.90
35541;DHT22;21650;48.840;9.162;2023-12-20T13:21:40;6.30;99.90
35541;DHT22;21650;48.840;9.162;2023-12-20T13:24:06;6.30;99.90
35541;DHT22;21650;48.840;9.162;2023-12-20T13:26:32;6.40;99.90
35541;DHT22;21650;48.840;9.162;2023-12-20T13:28:58;6.50;99.90
35541;DHT22;21650;48.840;9.162;2023-12-20T13:31:24;6.50;99.90
35541;DHT22;21650;48.840;9.162;2023-12-20T13:33:50;6.50;99.90
35541;DHT22;21650;48.840;9.162;2023-12-20T13:36:16;6.50;99.90
35541;DHT22;21650;48.840;9.162;2023-12-20T13:38:43;6.50;99.90
35541;DHT22;21650;48.840;9.162;2023-12-20T13:41:08;6.50;99.90
35541;DHT22;21650;48.840;9.162;2023-12-20T13:43:34;6.50;99.90
35541;DHT22;21650;48.840;9.162;2023-12-20T13:46:00;6.50;99.90
35541;DHT22;21650;48.840;9.162;2023-12-20T13:48:26;6.40;99.90
35541;DHT22;21650;48.840;9.162;2023-12-20T13:50:51;6.30;99.90
35541;DHT22;21650;48.840;9.162;2023-12-20T13:53:17;6.30;99.90
35541;DHT22;21650;48.840;9.162;2023-12-20T13:55:42;6.30;99.90
35541;DHT22;21650;48.840;9.162;2023-12-20T13:58:08;6.20;99.90
35541;DHT22;21650;48.840;9.162;2023-12-20T14:00:35;6.10;99.90
35541;DHT22;21650;48.840;9.162;2023-12-20T14:03:02;6.10;99.90
35541;DHT22;21650;48.840;9.162;2023-12-20T14:05:28;6.10;99.90
35541;DHT22;21650;48.840;9.162;2023-12-20T14:07:54;6.10;99.90
35541;DHT22;21650;48.840;9.162;2023-12-20T14:10:20;6.00;99.90
35541;DHT22;21650;48.840;9.162;2023-12-20T14:12:45;6.00;99.90
35541;DHT22;21650;48.840;9.162;2023-12-20T14:15:11;6.00;99.90
35541;DHT22;21650;48.840;9.162;2023-12-20T14:17:39;6.00;99.90
35541;DHT22;21650;48.840;9.162;2023-12-20T14:20:08;6.00;99.90
35541;DHT22;21650;48.840;9.162;2023-12-20T14:22:34;5.90;99.90
35541;DHT22;21650;48.840;9.162;2023-12-20T14:25:00;5.90;99.90
35541;DHT22;21650;48.840;9.162;2023-12-20T14:27:26;5.80;99.90
35541;DHT22;21650;48.840;9.162;2023-12-20T14:29:54;5.80;99.90
35541;DHT22;21650;48.840;9.162;2023-12-20T14:32:19;5.80;99.90
35541;DHT22;21650;48.840;9.162;2023-12-20T14:34:45;5.70;99.90
35541;DHT22;21650;48.840;9.162;2023-12-20T14:37:11;5.70;99.90
35541;DHT22;21650;48.840;9.162;2023-12-20T14:39:37;5.70;99.90
35541;DHT22;21650;48.840;9.162;2023-12-20T14:42:07;5.70;99.90
35541;DHT22;21650;48.840;9.162;2023-12-20T14:44:37;5.70;99.90
35541;DHT22;21650;48.840;9.162;2023-12-20T14:47:03;5.70;99.90
35541;DHT22;21650;48.840;9.162;2023-12-20T14:49:29;5.70;99.90
35541;DHT22;21650;48.840;9.162;2023-12-20T14:51:55;5.80;99.90
35541;DHT22;21650;48.840;9.162;2023-12-20T14:54:21;5.70;99.90
35541;DHT22;21650;48.840;9.162;2023-12-20T14:56:47;5.70;99.90
35541;DHT22;21650;48.840;9.162;2023-12-20T14:59:13;5.60;99.90
35541;DHT22;21650;48.840;9.162;2023-12-20T15:01:39;5.50;99.90
35541;DHT22;21650;48.840;9.162;2023-12-20T15:04:08;5.50;99.90
35541;DHT22;21650;48.840;9.162;2023-12-20T15:06:34;5.50;99.90
35541;DHT22;21650;48.840;9.162;2023-12-20T15:09:00;5.50;99.90
35541;DHT22;21650;48.840;9.162;2023-12-20T15:11:26;5.40;99.90
35541;DHT22;21650;48.840;9.162;2023-12-20T15:13:52;5.40;99.90
35541;DHT22;21650;48.840;9.162;2023-12-20T15:16:22;5.30;99.90
35541;DHT22;21650;48.840;9.162;2023-12-20T15:18:48;5.30;99.90
35541;DHT22;21650;48.840;9.162;2023-12-20T15:21:14;5.30;99.90
35541;DHT22;21650;48.840;9.162;2023-12-20T15:23:40;5.30;99.90
35541;DHT22;21650;48.840;9.162;2023-12-20T15:26:16;5.40;99.90
35541;DHT22;21650;48.840;9.162;2023-12-20T15:28:42;5.40;99.90
35541;DHT22;21650;48.840;9.162;2023-12-20T15:31:08;5.40;99.90
35541;DHT22;21650;48.840;9.162;2023-12-20T15:33:34;5.40;99.90
35541;DHT22;21650;48.840;9.162;2023-12-20T15:35:59;5.40;99.90
35541;DHT22;21650;48.840;9.162;2023-12-20T15:38:25;5.40;99.90
35541;DHT22;21650;48.840;9.162;2023-12-20T15:40:50;5.50;99.90
35541;DHT22;21650;48.840;9.162;2023-12-20T15:43:16;5.50;99.90
35541;DHT22;21650;48.840;9.162;2023-12-20T15:45:41;5.50;99.90